Grantsville, MD (21536)

10:25 AM EST on February 12, 2016 (GMT -0500)
The Highlands | | Change Station
CLOSE
Current Station
Personal Weather Station
Location: Grantsville, MD
Elevation: 2526 ft
Nearby Weather Stations
Active Advisory: Wind Chill Watch

Elev 2526 ft 39.72 °N, 79.07 °W | Updated 8 minutes ago

Overcast
Overcast
14.5 °F
Feels Like 8 °F
N
4.2
Wind Variable Wind from WSW

Today
High -- | Low -- °F
--% Chance of Precip.
Yesterday
High -- | Low -- °F
Precip. -- in
Pressure 29.97 in
Visibility 10.0 miles
Clouds Scattered Clouds 7000 ft
Overcast 9000 ft
Windchill 8 °F
Dew Point 4 °F
Humidity 63%
Rainfall 0.00 in
Snow Depth Not available.
7:13 AM 5:48 PM
Waxing Crescent, 21% visible
METAR K2G4 121500Z AUTO 22005KT 10SM SCT070 OVC090 M13/M16 A2997 RMK AO1
Pressure 29.97 in
Visibility 10.0 miles
Clouds Scattered Clouds 7000 ft
Overcast 9000 ft
Windchill 8 °F
Dew Point 4 °F
Humidity 63%
Rainfall 0.00 in
Snow Depth Not available.
7:13 AM 5:48 PM
Waxing Crescent, 21% visible
METAR K2G4 121500Z AUTO 22005KT 10SM SCT070 OVC090 M13/M16 A2997 RMK AO1

10-Day Weather Forecast

Almanac

Astronomy

Feb. 12, 2016 Rise Set
Actual Time
Civil Twilight
Nautical Twilight
Astronomical Twilight
Moon
Length of Visible Light
Length of Day
Tomorrow will be .
, % of the Moon is Illuminated

Today's Extremes

State Highs State Lows

Community

WunderPhotos

Upload Photos

1,892,329 photos uploaded!

WunderBlog® & News

Nearby

Air Quality

  Air Quality AQ Index Pollutant
Not available.

Snow Depth

Station Depth Elevation

Earthquake Activity

City Distance Mag. Time & Date
Minimum magnitude displayed is 2.5.

Coastal Water Temperatures

Place Temperature

Stations

Nearby Weather Stations

Station Location Temp. Windchill Dew Point Humidity Wind Precip. Elev Updated Type
                   

Watches & Warnings

Wind Chill Watch
Issued: 3:29 AM EST Feb. 12, 2016 – National Weather Service

... Wind chill watch in effect from late tonight through Sunday
morning...

The National Weather Service in Pittsburgh has issued a wind
chill watch... which is in effect from late tonight through Sunday
morning.

* Wind chill... 20 to 30 below wind chills are possible tonight
through Sunday morning.

* Wind... northwest 10 to 20 mph with gusts up to 35 mph.

* Impacts... frost bite and hypothermia are possible if
precautions are not taken.

Precautionary/preparedness actions...

A wind chill watch means the there is the potential for a
combination of very cold air and strong winds to create
dangerously low wind chill values. Monitor the latest forecasts
and warnings for updates on this situation.